Terminal Aerodrome Forecast
Issued by NWS

Home | Current Version | Previous Version | Text Only | Print | Product List | Glossary On
Versions: 1 2 3 4 5 6 7 8 9 10 11 12 13 14 15 16 17 18
000
FTUS44 KLIX 210858 AAA
TAFMCB
TAF AMD
KMCB 210858Z 2109/2206 00000KT P6SM BKN025
     FM211300 00000KT P6SM BKN045 BKN080
     FM211800 35004KT P6SM SHRA VCTS BKN045CB BKN200
     FM220000 00000KT P6SM BKN040 BKN130 PROB30 2200/2204 4SM -TSRA
      BR OVC012CB=

USA.gov is the U.S. government's official web portal to all federal, state and local government web resources and services.